createdAt,value
2018-01-18T00:01:54.812Z,6.07
2018-01-18T00:04:22.454Z,11.45
2018-01-18T00:06:50.128Z,6.30
2018-01-18T00:09:17.732Z,10.48
2018-01-18T00:11:45.373Z,13.73
2018-01-18T00:14:12.968Z,7.53
2018-01-18T00:16:40.576Z,11.85
2018-01-18T00:19:08.977Z,7.87
2018-01-18T00:21:36.588Z,11.73
2018-01-18T00:24:04.192Z,7.10
2018-01-18T00:26:31.834Z,6.62
2018-01-18T00:28:59.428Z,6.75
2018-01-18T00:31:27.041Z,10.95
2018-01-18T00:33:55.444Z,9.25
2018-01-18T00:36:23.049Z,9.60
2018-01-18T00:38:50.658Z,9.70
2018-01-18T00:41:19.064Z,13.35
2018-01-18T00:43:47.424Z,7.78
2018-01-18T00:46:15.029Z,7.82
2018-01-18T00:48:43.440Z,10.35
2018-01-18T00:51:11.052Z,10.60
2018-01-18T00:53:38.671Z,14.00
2018-01-18T00:56:07.068Z,8.68
2018-01-18T00:58:35.436Z,12.52
2018-01-18T01:01:03.041Z,7.62
2018-01-18T01:03:30.681Z,8.70
2018-01-18T01:05:58.281Z,11.65
2018-01-18T01:08:26.641Z,9.63
2018-01-18T01:10:54.273Z,6.43
2018-01-18T01:13:21.877Z,6.45
2018-01-18T01:15:49.484Z,10.55
2018-01-18T01:18:17.889Z,13.38
2018-01-18T01:20:45.497Z,12.18
2018-01-18T01:23:13.105Z,10.15
2018-01-18T01:25:40.732Z,8.65
2018-01-18T01:28:08.336Z,8.70
2018-01-18T01:30:35.941Z,11.05
2018-01-18T01:33:04.345Z,13.93
2018-01-18T01:35:31.949Z,12.98
2018-01-18T01:37:59.560Z,14.05
2018-01-18T01:40:27.204Z,8.80
2018-01-18T01:42:54.813Z,12.35
2018-01-18T01:45:22.425Z,11.82
2018-01-18T01:47:50.060Z,10.80
2018-01-18T01:50:17.669Z,9.40
2018-01-18T01:52:45.273Z,9.90
2018-01-18T01:55:12.909Z,8.68
2018-01-18T01:57:40.520Z,6.93
2018-01-18T02:00:08.118Z,5.80
2018-01-18T02:02:35.757Z,7.32
2018-01-18T02:05:03.358Z,6.72
2018-01-18T02:07:30.969Z,10.98
2018-01-18T02:09:59.365Z,9.73
2018-01-18T02:12:27.736Z,4.75
2018-01-18T02:14:55.345Z,4.80
2018-01-18T02:17:22.976Z,8.05
2018-01-18T02:19:50.576Z,6.28
2018-01-18T02:22:18.937Z,6.10
2018-01-18T02:24:46.569Z,8.02
2018-01-18T02:27:14.173Z,9.50
2018-01-18T02:29:41.772Z,6.20
2018-01-18T02:32:10.166Z,9.32
2018-01-18T02:34:38.532Z,9.90
2018-01-18T02:37:06.706Z,7.50
2018-01-18T02:39:34.332Z,5.25
2018-01-18T02:42:02.696Z,7.93
2018-01-18T02:44:30.302Z,13.23
2018-01-18T02:46:57.933Z,8.80
2018-01-18T02:49:25.540Z,6.80
2018-01-18T02:51:53.914Z,11.15
2018-01-18T02:54:21.557Z,6.82
2018-01-18T02:56:49.210Z,5.03
2018-01-18T02:59:16.809Z,8.35
2018-01-18T03:01:44.480Z,8.15
2018-01-18T03:04:12.083Z,7.28
2018-01-18T03:06:39.681Z,9.00
2018-01-18T03:09:07.320Z,10.18
2018-01-18T03:11:34.912Z,8.15
2018-01-18T03:14:03.284Z,7.82
2018-01-18T03:16:30.912Z,6.47
2018-01-18T03:18:58.549Z,12.30
2018-01-18T03:21:26.152Z,9.73
2018-01-18T03:23:53.830Z,5.30
2018-01-18T03:26:21.440Z,5.60
2018-01-18T03:28:49.037Z,8.30
2018-01-18T03:31:16.677Z,6.57
2018-01-18T03:33:44.281Z,7.37
2018-01-18T03:36:11.923Z,13.62
2018-01-18T03:38:39.553Z,6.72
2018-01-18T03:41:08.890Z,10.88
2018-01-18T03:43:36.497Z,9.05
2018-01-18T03:46:04.137Z,7.97
2018-01-18T03:48:31.732Z,8.25
2018-01-18T03:50:59.384Z,8.95
2018-01-18T03:53:27.016Z,8.45
2018-01-18T03:55:54.621Z,9.70
2018-01-18T03:58:22.218Z,8.50
2018-01-18T04:00:49.856Z,8.32
2018-01-18T04:03:18.218Z,6.70
2018-01-18T04:05:45.826Z,9.85
2018-01-18T04:08:14.232Z,6.95
2018-01-18T04:10:41.828Z,7.68
2018-01-18T04:13:09.428Z,11.50
2018-01-18T04:15:37.058Z,4.85
2018-01-18T04:18:04.652Z,7.35
2018-01-18T04:20:32.257Z,8.23
2018-01-18T04:22:59.899Z,18.75
2018-01-18T04:25:27.501Z,5.35
2018-01-18T04:27:55.112Z,12.82
2018-01-18T04:30:22.749Z,9.25
2018-01-18T04:32:50.360Z,18.35
2018-01-18T04:35:17.969Z,10.20
2018-01-18T04:37:45.600Z,5.28
2018-01-18T04:40:13.965Z,8.02
2018-01-18T04:42:41.565Z,8.50
2018-01-18T04:45:09.206Z,11.38
2018-01-18T04:47:36.800Z,6.95
2018-01-18T04:50:05.170Z,10.48
2018-01-18T04:52:32.808Z,5.65
2018-01-18T04:55:00.406Z,8.20
2018-01-18T04:57:28.009Z,7.95
2018-01-18T04:59:56.413Z,10.13
2018-01-18T05:02:24.792Z,11.23
2018-01-18T05:04:53.172Z,6.85
2018-01-18T05:07:20.806Z,7.43
2018-01-18T05:09:48.409Z,8.75
2018-01-18T05:12:16.233Z,8.65
2018-01-18T05:14:43.885Z,6.70
2018-01-18T05:17:12.265Z,10.57
2018-01-18T05:19:39.877Z,10.60
2018-01-18T05:22:07.510Z,7.32
2018-01-18T05:24:35.108Z,8.25
2018-01-18T05:27:03.477Z,10.65
2018-01-18T05:29:31.113Z,10.88
2018-01-18T05:31:58.728Z,11.00
2018-01-18T05:34:26.334Z,11.57
2018-01-18T05:36:53.973Z,9.35
2018-01-18T05:39:21.575Z,7.32
2018-01-18T05:41:49.496Z,10.48
2018-01-18T05:44:17.129Z,8.18
2018-01-18T05:46:44.733Z,6.45
2018-01-18T05:49:12.337Z,8.35
2018-01-18T05:51:39.968Z,6.53
2018-01-18T05:54:07.617Z,8.63
2018-01-18T05:56:36.219Z,10.77
2018-01-18T05:59:04.916Z,8.82
2018-01-18T06:01:33.284Z,13.27
2018-01-18T06:04:00.893Z,11.52
2018-01-18T06:06:28.529Z,9.82
2018-01-18T06:08:56.140Z,12.13
2018-01-18T06:11:23.749Z,9.48
2018-01-18T06:13:51.388Z,10.13
2018-01-18T06:16:18.990Z,8.63
2018-01-18T06:18:46.602Z,12.45
2018-01-18T06:21:14.237Z,7.93
2018-01-18T06:23:41.848Z,11.23
2018-01-18T06:26:09.461Z,17.12
2018-01-18T06:28:37.142Z,16.02
2018-01-18T06:31:04.756Z,11.93
2018-01-18T06:33:32.369Z,11.57
2018-01-18T06:36:00.770Z,15.27
2018-01-18T06:38:28.372Z,7.95
2018-01-18T06:40:55.972Z,13.52
2018-01-18T06:43:23.609Z,19.70
2018-01-18T06:45:51.241Z,19.50
2018-01-18T06:48:18.865Z,20.83
2018-01-18T06:50:46.501Z,17.20
2018-01-18T06:53:14.877Z,17.70
2018-01-18T06:55:43.256Z,15.88
2018-01-18T06:58:10.899Z,17.75
2018-01-18T07:00:38.505Z,18.37
2018-01-18T07:03:06.119Z,21.10
2018-01-18T07:05:33.757Z,19.10
2018-01-18T07:08:01.374Z,14.32
2018-01-18T07:10:28.981Z,19.67
2018-01-18T07:12:56.624Z,16.55
2018-01-18T07:15:24.556Z,22.27
2018-01-18T07:17:52.177Z,11.15
2018-01-18T07:20:19.816Z,18.62
2018-01-18T07:22:48.180Z,14.13
2018-01-18T07:25:15.793Z,10.60
2018-01-18T07:27:44.192Z,15.85
2018-01-18T07:30:11.793Z,12.82
2018-01-18T07:32:39.404Z,14.23
2018-01-18T07:35:07.038Z,8.32
2018-01-18T07:37:34.640Z,20.33
2018-01-18T07:40:02.246Z,10.75
2018-01-18T07:42:30.645Z,10.77
2018-01-18T07:44:58.253Z,8.02
2018-01-18T07:47:25.853Z,5.10
2018-01-18T07:49:53.484Z,5.25
2018-01-18T07:52:21.088Z,5.28
2018-01-18T07:54:48.688Z,5.05
2018-01-18T07:57:21.969Z,6.18
2018-01-18T07:59:49.577Z,10.93
2018-01-18T08:02:17.954Z,6.03
2018-01-18T08:04:45.587Z,7.37
2018-01-18T08:07:13.197Z,5.78
2018-01-18T08:09:40.801Z,6.35
2018-01-18T08:12:21.353Z,6.95
2018-01-18T08:14:48.969Z,3.60
2018-01-18T08:17:16.565Z,7.78
2018-01-18T08:19:44.200Z,4.03
2018-01-18T08:22:12.569Z,3.22
2018-01-18T08:24:40.174Z,2.95
2018-01-18T08:27:07.838Z,5.72
2018-01-18T08:29:36.201Z,5.53
2018-01-18T08:32:03.809Z,8.93
2018-01-18T08:34:31.444Z,3.85
2018-01-18T08:36:59.053Z,4.82
2018-01-18T08:39:27.429Z,4.05
2018-01-18T08:41:55.068Z,3.42
2018-01-18T08:44:22.674Z,3.65
2018-01-18T08:46:50.281Z,5.68
2018-01-18T08:49:17.940Z,5.80
2018-01-18T08:51:46.309Z,3.22
2018-01-18T08:54:13.916Z,2.78
2018-01-18T08:56:41.556Z,2.05
2018-01-18T08:59:09.156Z,4.40
2018-01-18T09:01:37.520Z,3.42
2018-01-18T09:04:05.153Z,5.62
2018-01-18T09:06:32.752Z,4.40
2018-01-18T09:09:00.344Z,4.45
2018-01-18T09:11:27.978Z,3.17
2018-01-18T09:13:55.585Z,3.92
2018-01-18T09:16:23.192Z,2.85
2018-01-18T09:18:51.592Z,1.80
2018-01-18T09:21:19.193Z,5.80
2018-01-18T09:23:46.793Z,4.43
2018-01-18T09:26:14.477Z,3.85
2018-01-18T09:28:42.081Z,4.43
2018-01-18T09:31:10.444Z,4.35
2018-01-18T09:33:38.849Z,4.15
2018-01-18T09:36:07.217Z,5.18
2018-01-18T09:38:34.824Z,3.50
2018-01-18T09:41:03.218Z,3.50
2018-01-18T09:43:30.826Z,2.90
2018-01-18T09:45:58.424Z,2.92
2018-01-18T09:48:26.049Z,3.30
2018-01-18T09:50:53.649Z,2.90
2018-01-18T09:53:21.252Z,4.15
2018-01-18T09:55:48.885Z,3.33
2018-01-18T09:58:16.489Z,2.45
2018-01-18T10:00:44.084Z,3.65
2018-01-18T10:03:11.713Z,2.10
2018-01-18T10:05:39.313Z,1.67
2018-01-18T10:08:06.904Z,2.45
2018-01-18T10:10:34.532Z,2.22
2018-01-18T10:13:02.133Z,2.00
2018-01-18T10:15:29.737Z,1.85
2018-01-18T10:17:58.139Z,1.23
2018-01-18T10:20:26.514Z,1.95
2018-01-18T10:22:54.116Z,1.15
2018-01-18T10:25:21.742Z,1.65
2018-01-18T10:27:49.349Z,1.30
2018-01-18T10:30:17.784Z,1.77
2018-01-18T10:32:45.448Z,1.27
2018-01-18T10:35:13.042Z,1.15
2018-01-18T10:37:40.641Z,0.80
2018-01-18T10:40:08.278Z,1.23
2018-01-18T10:42:35.916Z,2.03
2018-01-18T10:45:04.305Z,1.20
2018-01-18T10:47:31.940Z,1.10
2018-01-18T10:49:59.544Z,1.10
2018-01-18T10:52:27.985Z,2.60
2018-01-18T10:54:55.627Z,0.80
2018-01-18T10:57:23.229Z,1.00
2018-01-18T10:59:50.828Z,1.20
2018-01-18T11:02:18.452Z,0.70
2018-01-18T11:04:46.053Z,0.82
2018-01-18T11:07:13.658Z,0.80
2018-01-18T11:09:41.308Z,1.15
2018-01-18T11:12:08.904Z,1.00
2018-01-18T11:14:36.510Z,0.65
2018-01-18T11:17:04.140Z,1.15
2018-01-18T11:19:31.737Z,0.73
2018-01-18T11:21:59.340Z,0.82
2018-01-18T11:24:26.968Z,0.93
2018-01-18T11:26:54.568Z,1.00
2018-01-18T11:29:22.942Z,1.40
2018-01-18T11:31:50.572Z,1.25
2018-01-18T11:34:18.181Z,0.93
2018-01-18T11:36:45.773Z,0.95
2018-01-18T11:39:14.586Z,1.12
2018-01-18T11:41:42.948Z,1.23
2018-01-18T11:44:10.580Z,0.70
2018-01-18T11:46:38.237Z,2.15
2018-01-18T11:49:05.932Z,1.35
2018-01-18T11:51:33.557Z,0.88
2018-01-18T11:54:01.185Z,0.77
2018-01-18T11:56:28.788Z,0.60
2018-01-18T11:58:56.394Z,1.15
2018-01-18T12:01:24.788Z,1.67
2018-01-18T12:03:53.152Z,1.00
2018-01-18T12:06:20.753Z,1.80
2018-01-18T12:08:49.148Z,0.90
2018-01-18T12:11:17.512Z,0.98
2018-01-18T12:13:45.113Z,0.70
2018-01-18T12:16:12.750Z,0.70
2018-01-18T12:18:40.353Z,0.60
2018-01-18T12:21:08.712Z,0.70
2018-01-18T12:23:36.349Z,0.75
2018-01-18T12:26:03.953Z,1.00
2018-01-18T12:28:31.557Z,0.70
2018-01-18T12:30:59.957Z,1.70
2018-01-18T12:33:28.321Z,0.85
2018-01-18T12:35:55.920Z,0.60
2018-01-18T12:38:24.365Z,0.70
2018-01-18T12:40:51.980Z,5.10
2018-01-18T12:43:20.349Z,0.70
2018-01-18T12:45:48.103Z,0.60
2018-01-18T12:48:15.711Z,0.80
2018-01-18T12:50:43.313Z,0.90
2018-01-18T12:53:10.954Z,0.85
2018-01-18T12:55:38.560Z,0.80
2018-01-18T12:58:06.171Z,0.62
2018-01-18T13:00:33.813Z,1.15
2018-01-18T13:03:01.417Z,0.73
2018-01-18T13:05:29.029Z,0.65
2018-01-18T13:07:56.656Z,0.90
2018-01-18T13:10:24.289Z,3.67
2018-01-18T13:12:52.658Z,1.75
2018-01-18T13:15:20.293Z,2.10
2018-01-18T13:17:47.904Z,0.98
2018-01-18T13:20:15.504Z,1.73
2018-01-18T13:22:43.905Z,1.33
2018-01-18T13:25:11.505Z,1.30
2018-01-18T13:27:39.109Z,4.20
2018-01-18T13:30:06.764Z,4.30
2018-01-18T13:32:34.373Z,1.40
2018-01-18T13:35:01.968Z,1.10
2018-01-18T13:37:30.369Z,2.17
2018-01-18T13:39:57.964Z,4.97
2018-01-18T13:42:25.572Z,1.75
2018-01-18T13:44:53.204Z,2.65
2018-01-18T13:47:20.801Z,1.52
2018-01-18T13:49:48.409Z,1.52
2018-01-18T13:52:16.053Z,1.30
2018-01-18T13:54:43.649Z,3.05
2018-01-18T13:57:11.244Z,1.55
2018-01-18T13:59:39.645Z,1.20
2018-01-18T14:02:07.269Z,2.28
2018-01-18T14:04:34.877Z,2.25
2018-01-18T14:07:03.273Z,1.10
2018-01-18T14:09:31.645Z,1.65
2018-01-18T14:11:59.250Z,1.02
2018-01-18T14:14:26.893Z,1.35
2018-01-18T14:16:54.502Z,1.00
2018-01-18T14:19:22.112Z,6.20
2018-01-18T14:21:49.749Z,4.22
2018-01-18T14:24:17.402Z,2.65
2018-01-18T14:26:45.777Z,4.50
2018-01-18T14:29:13.416Z,4.68
2018-01-18T14:31:41.029Z,2.75
2018-01-18T14:34:08.636Z,2.78
2018-01-18T14:36:36.268Z,2.00
2018-01-18T14:39:03.875Z,4.93
2018-01-18T14:41:31.483Z,2.78
2018-01-18T14:43:59.112Z,2.03
2018-01-18T14:46:27.485Z,3.55
2018-01-18T14:48:55.097Z,3.30
2018-01-18T14:51:22.736Z,1.87
2018-01-18T14:53:50.346Z,2.20
2018-01-18T14:56:17.945Z,4.30
2018-01-18T14:58:45.583Z,2.15
2018-01-18T15:01:13.184Z,2.30
2018-01-18T15:03:40.780Z,4.15
2018-01-18T15:06:08.404Z,1.70
2018-01-18T15:08:36.764Z,2.08
2018-01-18T15:11:04.364Z,1.85
2018-01-18T15:13:32.802Z,1.62
2018-01-18T15:16:01.209Z,1.55
2018-01-18T15:18:28.809Z,1.42
2018-01-18T15:20:56.444Z,6.00
2018-01-18T15:23:24.049Z,2.90
2018-01-18T15:25:51.651Z,1.85
2018-01-18T15:28:19.289Z,1.00
2018-01-18T15:30:46.900Z,1.45
2018-01-18T15:33:14.528Z,4.22
2018-01-18T15:35:42.162Z,2.20
2018-01-18T15:38:09.765Z,2.78
2018-01-18T15:40:37.370Z,1.00
2018-01-18T15:43:05.784Z,1.08
2018-01-18T15:45:33.381Z,1.30
2018-01-18T15:48:00.994Z,1.65
2018-01-18T15:50:28.641Z,1.77
2018-01-18T15:52:56.241Z,1.25
2018-01-18T15:55:23.898Z,1.60
2018-01-18T15:57:51.533Z,3.33
2018-01-18T16:00:19.891Z,1.50
2018-01-18T16:02:47.497Z,3.47
2018-01-18T16:05:15.133Z,1.73
2018-01-18T16:07:42.850Z,2.30
2018-01-18T16:10:10.461Z,3.15
2018-01-18T16:12:38.100Z,1.75
2018-01-18T16:15:05.709Z,0.80
2018-01-18T16:17:33.301Z,1.20
2018-01-18T16:20:00.933Z,1.48
2018-01-18T16:22:28.529Z,1.02
2018-01-18T16:24:56.214Z,2.78
2018-01-18T16:27:23.820Z,2.55
2018-01-18T16:29:52.193Z,0.90
2018-01-18T16:32:19.908Z,1.73
2018-01-18T16:34:47.549Z,1.50
2018-01-18T16:37:15.153Z,2.37
2018-01-18T16:39:42.755Z,2.97
2018-01-18T16:42:10.396Z,4.80
2018-01-18T16:44:38.014Z,0.80
2018-01-18T16:47:05.696Z,1.83
2018-01-18T16:49:33.488Z,1.87
2018-01-18T16:52:01.894Z,0.85
2018-01-18T16:54:30.284Z,3.85
2018-01-18T16:56:57.917Z,2.40
2018-01-18T16:59:25.528Z,4.40
2018-01-18T17:01:53.994Z,1.52
2018-01-18T17:04:21.733Z,2.05
2018-01-18T17:06:49.347Z,1.95
2018-01-18T17:09:16.951Z,1.95
2018-01-18T17:11:45.359Z,1.98
2018-01-18T17:14:13.117Z,6.45
2018-01-18T17:16:40.741Z,1.60
2018-01-18T17:19:08.377Z,1.35
2018-01-18T17:21:36.745Z,1.40
2018-01-18T17:24:04.513Z,4.12
2018-01-18T17:26:32.214Z,11.32
2018-01-18T17:29:00.588Z,0.95
2018-01-18T17:31:28.197Z,1.15
2018-01-18T17:33:56.604Z,2.05
2018-01-18T17:36:24.206Z,1.20
2018-01-18T17:38:51.825Z,2.22
2018-01-18T17:41:19.470Z,1.60
2018-01-18T17:43:48.446Z,1.30
2018-01-18T17:46:16.073Z,0.95
2018-01-18T17:48:45.211Z,1.75
2018-01-18T17:51:13.157Z,1.20
2018-01-18T17:53:40.753Z,1.62
2018-01-18T17:56:09.283Z,6.75
2018-01-18T17:58:36.890Z,3.30
2018-01-18T18:01:04.497Z,1.35
2018-01-18T18:03:32.140Z,0.80
2018-01-18T18:05:59.890Z,1.17
2018-01-18T18:08:27.492Z,1.45
2018-01-18T18:10:55.173Z,1.73
2018-01-18T18:13:22.798Z,0.82
2018-01-18T18:15:50.401Z,1.00
2018-01-18T18:18:18.033Z,1.73
2018-01-18T18:20:46.356Z,1.70
2018-01-18T18:23:14.051Z,1.45
2018-01-18T18:25:41.687Z,0.80
2018-01-18T18:28:09.285Z,1.10
2018-01-18T18:30:36.879Z,1.30
2018-01-18T18:33:04.515Z,2.65
2018-01-18T18:35:32.126Z,0.93
2018-01-18T18:38:00.270Z,1.37
2018-01-18T18:40:27.922Z,1.45
2018-01-18T18:42:56.147Z,2.15
2018-01-18T18:45:23.886Z,0.80
2018-01-18T18:47:51.528Z,1.75
2018-01-18T18:50:20.998Z,1.00
2018-01-18T18:52:48.684Z,0.98
2018-01-18T18:55:16.398Z,0.98
2018-01-18T18:57:44.095Z,1.12
2018-01-18T19:00:11.706Z,0.93
2018-01-18T19:02:39.342Z,1.20
2018-01-18T19:05:07.237Z,1.50
2018-01-18T19:07:35.530Z,0.90
2018-01-18T19:10:03.388Z,0.70
2018-01-18T19:12:31.780Z,3.20
2018-01-18T19:14:59.384Z,2.08
2018-01-18T19:17:27.033Z,1.05
2018-01-18T19:19:56.283Z,2.30
2018-01-18T19:22:23.884Z,1.10
2018-01-18T19:24:51.562Z,0.73
2018-01-18T19:27:19.195Z,1.40
2018-01-18T19:29:46.788Z,0.90
2018-01-18T19:32:14.420Z,1.15
2018-01-18T19:34:42.016Z,1.15
2018-01-18T19:37:09.645Z,3.72
2018-01-18T19:39:37.378Z,1.12
2018-01-18T19:42:04.977Z,2.08
2018-01-18T19:44:46.283Z,1.17
2018-01-18T19:47:14.701Z,1.20
2018-01-18T19:49:43.098Z,1.92
2018-01-18T19:52:10.702Z,0.80
2018-01-18T19:54:38.397Z,0.90
2018-01-18T19:57:06.034Z,0.80
2018-01-18T19:59:33.637Z,2.55
2018-01-18T20:02:01.258Z,1.90
2018-01-18T20:04:29.657Z,0.70
2018-01-18T20:06:58.022Z,1.33
2018-01-18T20:09:26.394Z,0.90
2018-01-18T20:11:54.036Z,1.77
2018-01-18T20:14:34.414Z,1.37
2018-01-18T20:17:04.666Z,1.48
2018-01-18T20:19:33.205Z,1.00
2018-01-18T20:22:02.329Z,2.45
2018-01-18T20:24:29.965Z,1.30
2018-01-18T20:26:57.565Z,1.85
2018-01-18T20:29:25.933Z,2.03
2018-01-18T20:31:53.574Z,2.47
2018-01-18T20:34:21.177Z,1.42
2018-01-18T20:36:48.786Z,1.52
2018-01-18T20:39:17.473Z,1.12
2018-01-18T20:41:45.836Z,1.55
2018-01-18T20:44:13.444Z,1.10
2018-01-18T20:46:41.845Z,1.90
2018-01-18T20:49:09.664Z,1.95
2018-01-18T20:51:38.093Z,1.77
2018-01-18T20:54:05.728Z,2.78
2018-01-18T20:56:33.345Z,1.20
2018-01-18T20:59:01.722Z,2.10
2018-01-18T21:01:29.356Z,2.65
2018-01-18T21:03:56.970Z,2.05
2018-01-18T21:06:24.615Z,1.52
2018-01-18T21:08:52.241Z,1.83
2018-01-18T21:11:20.625Z,2.22
2018-01-18T21:13:49.006Z,3.30
2018-01-18T21:16:16.634Z,2.15
2018-01-18T21:18:44.236Z,1.52
2018-01-18T21:21:11.840Z,1.58
2018-01-18T21:23:40.477Z,3.58
2018-01-18T21:26:08.153Z,2.22
2018-01-18T21:28:35.751Z,2.45
2018-01-18T21:31:03.394Z,2.25
2018-01-18T21:33:31.001Z,5.37
2018-01-18T21:35:58.615Z,2.53
2018-01-18T21:38:27.062Z,3.62
2018-01-18T21:40:54.797Z,3.45
2018-01-18T21:43:22.404Z,4.90
2018-01-18T21:45:50.042Z,4.12
2018-01-18T21:48:18.422Z,3.53
2018-01-18T21:50:46.798Z,5.12
2018-01-18T21:53:15.197Z,4.28
2018-01-18T21:55:43.564Z,5.25
2018-01-18T21:58:11.177Z,3.50
2018-01-18T22:00:38.820Z,3.97
2018-01-18T22:03:06.425Z,3.45
2018-01-18T22:05:34.036Z,5.97
2018-01-18T22:08:01.672Z,7.40
2018-01-18T22:10:29.272Z,5.50
2018-01-18T22:12:56.873Z,5.85
2018-01-18T22:15:24.510Z,5.75
2018-01-18T22:17:52.113Z,7.47
2018-01-18T22:20:21.310Z,5.50
2018-01-18T22:22:48.946Z,5.80
2018-01-18T22:25:16.553Z,6.60
2018-01-18T22:27:44.158Z,7.10
2018-01-18T22:30:11.790Z,6.18
2018-01-18T22:32:39.399Z,5.60
2018-01-18T22:35:07.002Z,7.93
2018-01-18T22:37:35.417Z,5.60
2018-01-18T22:40:03.022Z,6.05
2018-01-18T22:42:30.625Z,6.15
2018-01-18T22:44:58.263Z,6.05
2018-01-18T22:47:25.864Z,4.62
2018-01-18T22:49:53.977Z,5.95
2018-01-18T22:52:22.382Z,5.90
2018-01-18T22:54:50.753Z,5.25
2018-01-18T22:57:19.132Z,7.30
2018-01-18T22:59:46.765Z,7.65
2018-01-18T23:02:14.364Z,5.07
2018-01-18T23:04:41.969Z,5.93
2018-01-18T23:07:10.381Z,5.57
2018-01-18T23:09:37.992Z,6.47
2018-01-18T23:12:05.596Z,7.53
2018-01-18T23:14:33.233Z,9.15
2018-01-18T23:17:00.841Z,5.43
2018-01-18T23:19:28.449Z,5.40
2018-01-18T23:21:56.092Z,5.10
2018-01-18T23:24:23.701Z,5.35
2018-01-18T23:26:51.314Z,5.95
2018-01-18T23:29:18.949Z,6.40
2018-01-18T23:31:46.558Z,4.90
2018-01-18T23:34:14.169Z,5.85
2018-01-18T23:36:42.572Z,5.35
2018-01-18T23:39:10.942Z,4.55
2018-01-18T23:41:38.544Z,3.80
2018-01-18T23:44:06.184Z,4.35
2018-01-18T23:46:33.788Z,5.45
2018-01-18T23:49:02.169Z,7.47
2018-01-18T23:51:30.583Z,6.55
2018-01-18T23:53:58.190Z,5.65
2018-01-18T23:56:25.796Z,3.90
2018-01-18T23:58:53.428Z,5.85
